sensor_id;sensor_type;location;lat;lon;timestamp;P1;durP1;ratioP1;P2;durP2;ratioP2
20758;SDS011;10539;53.686;9.158;2022-11-20T00:00:56;4.77;;;2.60;;
20758;SDS011;10539;53.686;9.158;2022-11-20T00:03:22;6.50;;;3.03;;
20758;SDS011;10539;53.686;9.158;2022-11-20T00:05:48;9.13;;;3.10;;
20758;SDS011;10539;53.686;9.158;2022-11-20T00:08:14;4.97;;;2.63;;
20758;SDS011;10539;53.686;9.158;2022-11-20T00:10:40;6.50;;;3.00;;
20758;SDS011;10539;53.686;9.158;2022-11-20T00:13:06;3.77;;;2.60;;
20758;SDS011;10539;53.686;9.158;2022-11-20T00:15:32;4.17;;;2.87;;
20758;SDS011;10539;53.686;9.158;2022-11-20T00:17:58;4.33;;;2.43;;
20758;SDS011;10539;53.686;9.158;2022-11-20T00:20:24;3.47;;;2.27;;
20758;SDS011;10539;53.686;9.158;2022-11-20T00:22:50;6.80;;;2.30;;
20758;SDS011;10539;53.686;9.158;2022-11-20T00:25:16;5.33;;;3.20;;
20758;SDS011;10539;53.686;9.158;2022-11-20T00:27:42;5.70;;;2.40;;
20758;SDS011;10539;53.686;9.158;2022-11-20T00:30:08;5.33;;;2.50;;
20758;SDS011;10539;53.686;9.158;2022-11-20T00:32:34;4.37;;;2.40;;
20758;SDS011;10539;53.686;9.158;2022-11-20T00:35:00;4.07;;;2.23;;
20758;SDS011;10539;53.686;9.158;2022-11-20T00:37:26;6.73;;;2.53;;
20758;SDS011;10539;53.686;9.158;2022-11-20T00:39:52;4.60;;;2.60;;
20758;SDS011;10539;53.686;9.158;2022-11-20T00:42:17;6.70;;;2.73;;
20758;SDS011;10539;53.686;9.158;2022-11-20T00:44:43;4.23;;;2.70;;
20758;SDS011;10539;53.686;9.158;2022-11-20T00:47:09;3.80;;;2.80;;
20758;SDS011;10539;53.686;9.158;2022-11-20T00:49:35;5.70;;;2.80;;
20758;SDS011;10539;53.686;9.158;2022-11-20T00:52:01;4.97;;;2.37;;
20758;SDS011;10539;53.686;9.158;2022-11-20T00:54:27;5.33;;;2.43;;
20758;SDS011;10539;53.686;9.158;2022-11-20T00:56:53;3.73;;;2.70;;
20758;SDS011;10539;53.686;9.158;2022-11-20T00:59:18;3.67;;;2.30;;
20758;SDS011;10539;53.686;9.158;2022-11-20T01:01:44;3.77;;;2.50;;
20758;SDS011;10539;53.686;9.158;2022-11-20T01:04:10;6.27;;;2.53;;
20758;SDS011;10539;53.686;9.158;2022-11-20T01:06:36;6.70;;;2.90;;
20758;SDS011;10539;53.686;9.158;2022-11-20T01:09:04;4.60;;;2.50;;
20758;SDS011;10539;53.686;9.158;2022-11-20T01:11:33;4.73;;;2.80;;
20758;SDS011;10539;53.686;9.158;2022-11-20T01:14:02;7.23;;;2.80;;
20758;SDS011;10539;53.686;9.158;2022-11-20T01:16:32;3.83;;;2.43;;
20758;SDS011;10539;53.686;9.158;2022-11-20T01:19:03;6.67;;;3.27;;
20758;SDS011;10539;53.686;9.158;2022-11-20T01:21:31;5.13;;;2.60;;
20758;SDS011;10539;53.686;9.158;2022-11-20T01:23:58;5.83;;;2.60;;
20758;SDS011;10539;53.686;9.158;2022-11-20T01:26:27;6.07;;;2.63;;
20758;SDS011;10539;53.686;9.158;2022-11-20T01:28:55;3.77;;;2.50;;
20758;SDS011;10539;53.686;9.158;2022-11-20T01:31:22;6.40;;;2.70;;
20758;SDS011;10539;53.686;9.158;2022-11-20T01:33:57;6.07;;;2.87;;
20758;SDS011;10539;53.686;9.158;2022-11-20T01:36:25;5.37;;;2.83;;
20758;SDS011;10539;53.686;9.158;2022-11-20T01:38:54;8.47;;;5.37;;
20758;SDS011;10539;53.686;9.158;2022-11-20T01:41:21;7.10;;;4.43;;
20758;SDS011;10539;53.686;9.158;2022-11-20T01:44:06;5.83;;;3.50;;
20758;SDS011;10539;53.686;9.158;2022-11-20T01:46:33;4.57;;;2.83;;
20758;SDS011;10539;53.686;9.158;2022-11-20T01:49:14;6.00;;;2.93;;
20758;SDS011;10539;53.686;9.158;2022-11-20T01:52:00;4.00;;;2.70;;
20758;SDS011;10539;53.686;9.158;2022-11-20T01:54:34;3.87;;;2.50;;
20758;SDS011;10539;53.686;9.158;2022-11-20T01:57:03;4.90;;;2.93;;
20758;SDS011;10539;53.686;9.158;2022-11-20T01:59:31;5.83;;;2.70;;
20758;SDS011;10539;53.686;9.158;2022-11-20T02:01:56;5.07;;;2.87;;
20758;SDS011;10539;53.686;9.158;2022-11-20T02:04:23;5.10;;;2.63;;
20758;SDS011;10539;53.686;9.158;2022-11-20T02:06:54;3.90;;;2.37;;
20758;SDS011;10539;53.686;9.158;2022-11-20T02:09:25;7.07;;;2.77;;
20758;SDS011;10539;53.686;9.158;2022-11-20T02:11:51;4.23;;;2.70;;
20758;SDS011;10539;53.686;9.158;2022-11-20T02:14:17;5.23;;;2.53;;
20758;SDS011;10539;53.686;9.158;2022-11-20T02:16:46;4.70;;;2.63;;
20758;SDS011;10539;53.686;9.158;2022-11-20T02:19:21;7.47;;;2.70;;
20758;SDS011;10539;53.686;9.158;2022-11-20T02:22:04;4.77;;;2.70;;
20758;SDS011;10539;53.686;9.158;2022-11-20T02:24:39;6.57;;;2.70;;
20758;SDS011;10539;53.686;9.158;2022-11-20T02:27:08;5.73;;;2.50;;
20758;SDS011;10539;53.686;9.158;2022-11-20T02:29:38;4.60;;;2.90;;
20758;SDS011;10539;53.686;9.158;2022-11-20T02:32:18;6.80;;;2.83;;
20758;SDS011;10539;53.686;9.158;2022-11-20T02:34:44;5.30;;;2.90;;
20758;SDS011;10539;53.686;9.158;2022-11-20T02:37:10;3.93;;;2.33;;
20758;SDS011;10539;53.686;9.158;2022-11-20T02:39:35;4.97;;;2.60;;
20758;SDS011;10539;53.686;9.158;2022-11-20T02:42:01;6.50;;;2.40;;
20758;SDS011;10539;53.686;9.158;2022-11-20T02:44:27;5.57;;;2.70;;
20758;SDS011;10539;53.686;9.158;2022-11-20T02:46:53;6.60;;;2.73;;
20758;SDS011;10539;53.686;9.158;2022-11-20T02:49:21;5.13;;;2.83;;
20758;SDS011;10539;53.686;9.158;2022-11-20T02:51:49;5.73;;;2.53;;
20758;SDS011;10539;53.686;9.158;2022-11-20T02:54:14;5.70;;;2.87;;
20758;SDS011;10539;53.686;9.158;2022-11-20T02:56:40;7.33;;;2.80;;
20758;SDS011;10539;53.686;9.158;2022-11-20T02:59:06;4.83;;;2.50;;
20758;SDS011;10539;53.686;9.158;2022-11-20T03:01:32;6.93;;;2.83;;
20758;SDS011;10539;53.686;9.158;2022-11-20T03:03:58;6.13;;;2.67;;
20758;SDS011;10539;53.686;9.158;2022-11-20T03:06:24;5.30;;;2.50;;
20758;SDS011;10539;53.686;9.158;2022-11-20T03:08:49;5.03;;;2.40;;
20758;SDS011;10539;53.686;9.158;2022-11-20T03:11:15;6.63;;;2.77;;
20758;SDS011;10539;53.686;9.158;2022-11-20T03:13:42;5.00;;;2.53;;
20758;SDS011;10539;53.686;9.158;2022-11-20T03:16:12;7.00;;;2.50;;
20758;SDS011;10539;53.686;9.158;2022-11-20T03:18:39;4.37;;;2.33;;
20758;SDS011;10539;53.686;9.158;2022-11-20T03:21:06;5.90;;;2.73;;
20758;SDS011;10539;53.686;9.158;2022-11-20T03:23:32;5.83;;;2.53;;
20758;SDS011;10539;53.686;9.158;2022-11-20T03:28:42;4.37;;;2.47;;
20758;SDS011;10539;53.686;9.158;2022-11-20T03:31:12;4.30;;;2.40;;
20758;SDS011;10539;53.686;9.158;2022-11-20T03:33:39;3.93;;;2.60;;
20758;SDS011;10539;53.686;9.158;2022-11-20T03:36:06;3.77;;;2.60;;
20758;SDS011;10539;53.686;9.158;2022-11-20T03:38:34;3.83;;;2.23;;
20758;SDS011;10539;53.686;9.158;2022-11-20T03:41:10;5.33;;;2.63;;
20758;SDS011;10539;53.686;9.158;2022-11-20T03:43:41;5.50;;;2.60;;
20758;SDS011;10539;53.686;9.158;2022-11-20T03:46:07;5.37;;;2.70;;
20758;SDS011;10539;53.686;9.158;2022-11-20T03:48:33;7.00;;;2.57;;
20758;SDS011;10539;53.686;9.158;2022-11-20T03:51:09;4.70;;;2.40;;
20758;SDS011;10539;53.686;9.158;2022-11-20T03:53:37;4.83;;;2.80;;
20758;SDS011;10539;53.686;9.158;2022-11-20T03:56:04;4.70;;;2.57;;
20758;SDS011;10539;53.686;9.158;2022-11-20T03:58:30;6.83;;;2.97;;
20758;SDS011;10539;53.686;9.158;2022-11-20T04:00:56;4.77;;;2.83;;
20758;SDS011;10539;53.686;9.158;2022-11-20T04:03:21;4.60;;;2.30;;
20758;SDS011;10539;53.686;9.158;2022-11-20T04:05:47;5.03;;;3.00;;
20758;SDS011;10539;53.686;9.158;2022-11-20T04:08:13;4.93;;;2.83;;
20758;SDS011;10539;53.686;9.158;2022-11-20T04:10:39;3.97;;;2.70;;
20758;SDS011;10539;53.686;9.158;2022-11-20T04:13:04;6.10;;;2.80;;
20758;SDS011;10539;53.686;9.158;2022-11-20T04:15:30;5.07;;;2.80;;
20758;SDS011;10539;53.686;9.158;2022-11-20T04:17:56;4.43;;;2.50;;
20758;SDS011;10539;53.686;9.158;2022-11-20T04:20:21;5.63;;;2.30;;
20758;SDS011;10539;53.686;9.158;2022-11-20T04:22:47;4.43;;;2.70;;
20758;SDS011;10539;53.686;9.158;2022-11-20T04:25:13;4.10;;;2.37;;
20758;SDS011;10539;53.686;9.158;2022-11-20T04:27:39;5.87;;;2.87;;
20758;SDS011;10539;53.686;9.158;2022-11-20T04:30:05;7.33;;;3.00;;
20758;SDS011;10539;53.686;9.158;2022-11-20T04:32:31;4.27;;;2.47;;
20758;SDS011;10539;53.686;9.158;2022-11-20T04:34:57;4.67;;;2.50;;
20758;SDS011;10539;53.686;9.158;2022-11-20T04:37:22;3.70;;;2.37;;
20758;SDS011;10539;53.686;9.158;2022-11-20T04:39:48;4.83;;;2.57;;
20758;SDS011;10539;53.686;9.158;2022-11-20T04:42:15;4.57;;;2.50;;
20758;SDS011;10539;53.686;9.158;2022-11-20T04:44:54;5.77;;;2.70;;
20758;SDS011;10539;53.686;9.158;2022-11-20T04:47:21;4.77;;;2.63;;
20758;SDS011;10539;53.686;9.158;2022-11-20T04:49:47;6.03;;;2.50;;
20758;SDS011;10539;53.686;9.158;2022-11-20T04:52:17;4.90;;;2.70;;
20758;SDS011;10539;53.686;9.158;2022-11-20T04:54:42;3.53;;;2.37;;
20758;SDS011;10539;53.686;9.158;2022-11-20T04:57:08;3.97;;;2.40;;
20758;SDS011;10539;53.686;9.158;2022-11-20T04:59:34;6.67;;;2.50;;
20758;SDS011;10539;53.686;9.158;2022-11-20T05:01:59;4.00;;;2.60;;
20758;SDS011;10539;53.686;9.158;2022-11-20T05:04:25;6.23;;;2.70;;
20758;SDS011;10539;53.686;9.158;2022-11-20T05:06:51;3.57;;;2.37;;
20758;SDS011;10539;53.686;9.158;2022-11-20T05:09:16;6.07;;;2.60;;
20758;SDS011;10539;53.686;9.158;2022-11-20T05:11:42;2.90;;;2.40;;
20758;SDS011;10539;53.686;9.158;2022-11-20T05:14:08;5.67;;;2.67;;
20758;SDS011;10539;53.686;9.158;2022-11-20T05:16:34;3.53;;;2.50;;
20758;SDS011;10539;53.686;9.158;2022-11-20T05:19:01;4.57;;;2.67;;
20758;SDS011;10539;53.686;9.158;2022-11-20T05:21:29;4.57;;;2.33;;
20758;SDS011;10539;53.686;9.158;2022-11-20T05:23:57;6.60;;;3.07;;
20758;SDS011;10539;53.686;9.158;2022-11-20T05:26:23;6.43;;;2.73;;
20758;SDS011;10539;53.686;9.158;2022-11-20T05:28:49;5.77;;;2.67;;
20758;SDS011;10539;53.686;9.158;2022-11-20T05:31:16;6.50;;;2.63;;
20758;SDS011;10539;53.686;9.158;2022-11-20T05:33:45;4.30;;;2.73;;
20758;SDS011;10539;53.686;9.158;2022-11-20T05:36:12;7.47;;;2.70;;
20758;SDS011;10539;53.686;9.158;2022-11-20T05:38:39;6.27;;;2.60;;
20758;SDS011;10539;53.686;9.158;2022-11-20T05:41:06;3.90;;;2.53;;
20758;SDS011;10539;53.686;9.158;2022-11-20T05:43:34;4.37;;;2.60;;
20758;SDS011;10539;53.686;9.158;2022-11-20T05:46:00;5.63;;;2.80;;
20758;SDS011;10539;53.686;9.158;2022-11-20T05:48:28;6.03;;;2.70;;
20758;SDS011;10539;53.686;9.158;2022-11-20T05:50:58;4.13;;;3.23;;
20758;SDS011;10539;53.686;9.158;2022-11-20T05:53:25;6.00;;;2.80;;
20758;SDS011;10539;53.686;9.158;2022-11-20T05:55:57;4.57;;;2.80;;
20758;SDS011;10539;53.686;9.158;2022-11-20T05:58:28;3.77;;;2.53;;
20758;SDS011;10539;53.686;9.158;2022-11-20T06:00:54;4.30;;;2.63;;
20758;SDS011;10539;53.686;9.158;2022-11-20T06:03:27;5.53;;;2.97;;
20758;SDS011;10539;53.686;9.158;2022-11-20T06:05:54;7.23;;;3.67;;
20758;SDS011;10539;53.686;9.158;2022-11-20T06:08:22;4.90;;;2.63;;
20758;SDS011;10539;53.686;9.158;2022-11-20T06:10:48;6.60;;;2.67;;
20758;SDS011;10539;53.686;9.158;2022-11-20T06:13:13;3.83;;;2.43;;
20758;SDS011;10539;53.686;9.158;2022-11-20T06:15:39;3.93;;;2.37;;
20758;SDS011;10539;53.686;9.158;2022-11-20T06:18:05;5.07;;;2.30;;
20758;SDS011;10539;53.686;9.158;2022-11-20T06:20:30;4.43;;;2.33;;
20758;SDS011;10539;53.686;9.158;2022-11-20T06:22:56;6.57;;;2.70;;
20758;SDS011;10539;53.686;9.158;2022-11-20T06:25:22;4.47;;;2.23;;
20758;SDS011;10539;53.686;9.158;2022-11-20T06:27:49;6.17;;;2.67;;
20758;SDS011;10539;53.686;9.158;2022-11-20T06:30:14;6.50;;;2.70;;
20758;SDS011;10539;53.686;9.158;2022-11-20T06:32:40;5.03;;;2.87;;
20758;SDS011;10539;53.686;9.158;2022-11-20T06:35:06;5.60;;;2.63;;
20758;SDS011;10539;53.686;9.158;2022-11-20T06:37:32;3.87;;;2.60;;
20758;SDS011;10539;53.686;9.158;2022-11-20T06:39:58;4.47;;;2.80;;
20758;SDS011;10539;53.686;9.158;2022-11-20T06:42:24;6.10;;;2.77;;
20758;SDS011;10539;53.686;9.158;2022-11-20T06:44:50;10.20;;;5.10;;
20758;SDS011;10539;53.686;9.158;2022-11-20T06:47:15;6.60;;;3.37;;
20758;SDS011;10539;53.686;9.158;2022-11-20T06:49:41;4.03;;;2.60;;
20758;SDS011;10539;53.686;9.158;2022-11-20T06:52:07;5.87;;;2.40;;
20758;SDS011;10539;53.686;9.158;2022-11-20T06:54:32;5.67;;;2.30;;
20758;SDS011;10539;53.686;9.158;2022-11-20T06:56:58;4.13;;;2.77;;
20758;SDS011;10539;53.686;9.158;2022-11-20T06:59:23;7.00;;;3.03;;
20758;SDS011;10539;53.686;9.158;2022-11-20T07:01:49;5.33;;;2.67;;
20758;SDS011;10539;53.686;9.158;2022-11-20T07:04:15;4.20;;;2.50;;
20758;SDS011;10539;53.686;9.158;2022-11-20T07:06:40;8.20;;;2.90;;
20758;SDS011;10539;53.686;9.158;2022-11-20T07:09:06;4.70;;;2.53;;
20758;SDS011;10539;53.686;9.158;2022-11-20T07:11:32;5.93;;;2.50;;
20758;SDS011;10539;53.686;9.158;2022-11-20T07:13:57;5.10;;;3.10;;
20758;SDS011;10539;53.686;9.158;2022-11-20T07:16:23;8.50;;;2.90;;
20758;SDS011;10539;53.686;9.158;2022-11-20T07:18:49;3.73;;;2.77;;
20758;SDS011;10539;53.686;9.158;2022-11-20T07:21:14;7.17;;;2.93;;
20758;SDS011;10539;53.686;9.158;2022-11-20T07:23:40;4.93;;;2.77;;
20758;SDS011;10539;53.686;9.158;2022-11-20T07:26:07;4.77;;;2.57;;
20758;SDS011;10539;53.686;9.158;2022-11-20T07:28:35;5.33;;;2.57;;
20758;SDS011;10539;53.686;9.158;2022-11-20T07:31:02;4.60;;;2.50;;
20758;SDS011;10539;53.686;9.158;2022-11-20T07:33:29;4.27;;;2.70;;
20758;SDS011;10539;53.686;9.158;2022-11-20T07:35:55;4.40;;;2.30;;
20758;SDS011;10539;53.686;9.158;2022-11-20T07:38:23;8.75;;;3.75;;
20758;SDS011;10539;53.686;9.158;2022-11-20T07:40:52;5.10;;;3.23;;
20758;SDS011;10539;53.686;9.158;2022-11-20T07:43:19;6.17;;;3.23;;
20758;SDS011;10539;53.686;9.158;2022-11-20T07:45:45;5.90;;;2.97;;
20758;SDS011;10539;53.686;9.158;2022-11-20T07:48:10;5.70;;;2.90;;
20758;SDS011;10539;53.686;9.158;2022-11-20T07:50:40;5.40;;;3.00;;
20758;SDS011;10539;53.686;9.158;2022-11-20T07:53:06;5.43;;;3.10;;
20758;SDS011;10539;53.686;9.158;2022-11-20T07:55:31;5.63;;;3.27;;
20758;SDS011;10539;53.686;9.158;2022-11-20T07:57:58;4.73;;;3.00;;
20758;SDS011;10539;53.686;9.158;2022-11-20T08:00:24;4.93;;;2.70;;
20758;SDS011;10539;53.686;9.158;2022-11-20T08:02:51;4.53;;;2.97;;
20758;SDS011;10539;53.686;9.158;2022-11-20T08:05:18;6.17;;;3.37;;
20758;SDS011;10539;53.686;9.158;2022-11-20T08:07:43;5.40;;;3.23;;
20758;SDS011;10539;53.686;9.158;2022-11-20T08:10:10;4.73;;;3.40;;
20758;SDS011;10539;53.686;9.158;2022-11-20T08:12:44;5.57;;;2.90;;
20758;SDS011;10539;53.686;9.158;2022-11-20T08:15:30;6.13;;;3.40;;
20758;SDS011;10539;53.686;9.158;2022-11-20T08:18:00;6.70;;;3.40;;
20758;SDS011;10539;53.686;9.158;2022-11-20T08:20:30;9.70;;;3.90;;
20758;SDS011;10539;53.686;9.158;2022-11-20T08:23:03;8.20;;;4.10;;
20758;SDS011;10539;53.686;9.158;2022-11-20T08:25:31;5.93;;;3.80;;
20758;SDS011;10539;53.686;9.158;2022-11-20T08:28:01;6.10;;;4.10;;
20758;SDS011;10539;53.686;9.158;2022-11-20T08:30:29;7.13;;;4.07;;
20758;SDS011;10539;53.686;9.158;2022-11-20T08:32:59;6.67;;;4.20;;
20758;SDS011;10539;53.686;9.158;2022-11-20T08:35:37;5.77;;;4.10;;
20758;SDS011;10539;53.686;9.158;2022-11-20T08:38:04;6.73;;;4.17;;
20758;SDS011;10539;53.686;9.158;2022-11-20T08:40:31;6.60;;;4.50;;
20758;SDS011;10539;53.686;9.158;2022-11-20T08:42:57;5.20;;;3.80;;
20758;SDS011;10539;53.686;9.158;2022-11-20T08:45:23;7.30;;;4.20;;
20758;SDS011;10539;53.686;9.158;2022-11-20T08:47:48;6.10;;;4.53;;
20758;SDS011;10539;53.686;9.158;2022-11-20T08:50:15;7.93;;;4.40;;
20758;SDS011;10539;53.686;9.158;2022-11-20T08:52:42;6.60;;;4.07;;
20758;SDS011;10539;53.686;9.158;2022-11-20T08:55:08;6.13;;;4.03;;
20758;SDS011;10539;53.686;9.158;2022-11-20T08:57:35;7.00;;;3.93;;
20758;SDS011;10539;53.686;9.158;2022-11-20T09:00:03;6.37;;;3.93;;
20758;SDS011;10539;53.686;9.158;2022-11-20T09:02:30;5.67;;;4.10;;
20758;SDS011;10539;53.686;9.158;2022-11-20T09:04:57;6.93;;;3.63;;
20758;SDS011;10539;53.686;9.158;2022-11-20T09:07:23;6.80;;;3.73;;
20758;SDS011;10539;53.686;9.158;2022-11-20T09:09:49;5.10;;;3.87;;
20758;SDS011;10539;53.686;9.158;2022-11-20T09:12:15;5.57;;;3.83;;
20758;SDS011;10539;53.686;9.158;2022-11-20T09:14:40;4.60;;;3.50;;
20758;SDS011;10539;53.686;9.158;2022-11-20T09:17:06;6.43;;;3.17;;
20758;SDS011;10539;53.686;9.158;2022-11-20T09:19:33;4.70;;;3.43;;
20758;SDS011;10539;53.686;9.158;2022-11-20T09:21:59;9.20;;;3.97;;
20758;SDS011;10539;53.686;9.158;2022-11-20T09:24:25;5.53;;;3.70;;
20758;SDS011;10539;53.686;9.158;2022-11-20T09:26:51;7.90;;;3.70;;
20758;SDS011;10539;53.686;9.158;2022-11-20T09:29:17;8.20;;;4.50;;
20758;SDS011;10539;53.686;9.158;2022-11-20T09:31:43;7.23;;;4.70;;
20758;SDS011;10539;53.686;9.158;2022-11-20T09:34:09;6.37;;;4.47;;
20758;SDS011;10539;53.686;9.158;2022-11-20T09:36:35;5.90;;;4.97;;
20758;SDS011;10539;53.686;9.158;2022-11-20T09:39:01;5.33;;;4.17;;
20758;SDS011;10539;53.686;9.158;2022-11-20T09:54:51;6.77;;;4.13;;
20758;SDS011;10539;53.686;9.158;2022-11-20T09:57:22;4.83;;;3.80;;
20758;SDS011;10539;53.686;9.158;2022-11-20T09:59:53;4.83;;;4.20;;
20758;SDS011;10539;53.686;9.158;2022-11-20T10:03:13;5.23;;;4.00;;
20758;SDS011;10539;53.686;9.158;2022-11-20T10:05:28;5.57;;;4.50;;
20758;SDS011;10539;53.686;9.158;2022-11-20T10:08:04;5.63;;;4.23;;
20758;SDS011;10539;53.686;9.158;2022-11-20T10:10:40;7.17;;;4.00;;
20758;SDS011;10539;53.686;9.158;2022-11-20T10:21:54;6.13;;;4.03;;
20758;SDS011;10539;53.686;9.158;2022-11-20T10:24:57;5.77;;;4.13;;
20758;SDS011;10539;53.686;9.158;2022-11-20T10:30:12;5.53;;;4.27;;
20758;SDS011;10539;53.686;9.158;2022-11-20T10:32:40;6.13;;;3.63;;
20758;SDS011;10539;53.686;9.158;2022-11-20T10:37:44;7.77;;;4.03;;
20758;SDS011;10539;53.686;9.158;2022-11-20T10:40:23;6.40;;;4.77;;
20758;SDS011;10539;53.686;9.158;2022-11-20T10:42:54;6.03;;;3.80;;
20758;SDS011;10539;53.686;9.158;2022-11-20T10:47:51;6.07;;;4.40;;
20758;SDS011;10539;53.686;9.158;2022-11-20T10:50:37;6.33;;;4.37;;
20758;SDS011;10539;53.686;9.158;2022-11-20T10:54:12;6.47;;;4.17;;
20758;SDS011;10539;53.686;9.158;2022-11-20T10:56:07;6.53;;;4.50;;
20758;SDS011;10539;53.686;9.158;2022-11-20T11:01:44;8.80;;;4.07;;
20758;SDS011;10539;53.686;9.158;2022-11-20T11:04:53;6.40;;;3.97;;
20758;SDS011;10539;53.686;9.158;2022-11-20T11:07:08;9.10;;;4.00;;
20758;SDS011;10539;53.686;9.158;2022-11-20T11:09:39;5.47;;;3.80;;
20758;SDS011;10539;53.686;9.158;2022-11-20T11:12:09;6.27;;;3.87;;
20758;SDS011;10539;53.686;9.158;2022-11-20T11:14:43;5.33;;;3.43;;
20758;SDS011;10539;53.686;9.158;2022-11-20T11:20:03;3.70;;;2.70;;
20758;SDS011;10539;53.686;9.158;2022-11-20T11:22:42;4.67;;;2.80;;
20758;SDS011;10539;53.686;9.158;2022-11-20T11:25:32;3.57;;;2.83;;
20758;SDS011;10539;53.686;9.158;2022-11-20T11:28:02;3.90;;;2.77;;
20758;SDS011;10539;53.686;9.158;2022-11-20T11:30:50;3.37;;;2.57;;
20758;SDS011;10539;53.686;9.158;2022-11-20T11:33:21;3.97;;;2.57;;
20758;SDS011;10539;53.686;9.158;2022-11-20T11:35:53;4.20;;;2.87;;
20758;SDS011;10539;53.686;9.158;2022-11-20T11:38:37;4.87;;;3.23;;
20758;SDS011;10539;53.686;9.158;2022-11-20T11:41:05;4.50;;;3.03;;
20758;SDS011;10539;53.686;9.158;2022-11-20T11:43:33;5.23;;;2.97;;
20758;SDS011;10539;53.686;9.158;2022-11-20T11:46:27;6.00;;;2.80;;
20758;SDS011;10539;53.686;9.158;2022-11-20T11:49:00;4.50;;;2.90;;
20758;SDS011;10539;53.686;9.158;2022-11-20T11:51:58;5.07;;;3.03;;
20758;SDS011;10539;53.686;9.158;2022-11-20T12:02:40;6.70;;;4.13;;
20758;SDS011;10539;53.686;9.158;2022-11-20T12:07:47;6.50;;;3.30;;
20758;SDS011;10539;53.686;9.158;2022-11-20T12:10:19;4.70;;;3.20;;
20758;SDS011;10539;53.686;9.158;2022-11-20T12:15:58;5.23;;;3.50;;
20758;SDS011;10539;53.686;9.158;2022-11-20T12:18:24;8.20;;;3.13;;
20758;SDS011;10539;53.686;9.158;2022-11-20T12:29:18;6.77;;;3.90;;
20758;SDS011;10539;53.686;9.158;2022-11-20T12:31:52;6.10;;;4.73;;
20758;SDS011;10539;53.686;9.158;2022-11-20T12:40:17;6.67;;;5.23;;
20758;SDS011;10539;53.686;9.158;2022-11-20T12:51:15;6.00;;;4.77;;
20758;SDS011;10539;53.686;9.158;2022-11-20T12:57:29;5.97;;;3.87;;
20758;SDS011;10539;53.686;9.158;2022-11-20T13:02:54;4.97;;;3.90;;
20758;SDS011;10539;53.686;9.158;2022-11-20T13:08:10;4.30;;;3.33;;
20758;SDS011;10539;53.686;9.158;2022-11-20T13:10:46;4.77;;;3.30;;
20758;SDS011;10539;53.686;9.158;2022-11-20T13:18:45;5.37;;;3.77;;
20758;SDS011;10539;53.686;9.158;2022-11-20T13:21:18;4.57;;;3.30;;
20758;SDS011;10539;53.686;9.158;2022-11-20T13:23:46;4.57;;;3.50;;
20758;SDS011;10539;53.686;9.158;2022-11-20T13:26:16;4.30;;;3.03;;
20758;SDS011;10539;53.686;9.158;2022-11-20T13:28:45;4.77;;;3.00;;
20758;SDS011;10539;53.686;9.158;2022-11-20T13:31:24;6.13;;;3.27;;
20758;SDS011;10539;53.686;9.158;2022-11-20T13:33:56;5.83;;;4.13;;
20758;SDS011;10539;53.686;9.158;2022-11-20T13:36:25;4.27;;;3.43;;
20758;SDS011;10539;53.686;9.158;2022-11-20T13:38:54;4.60;;;3.80;;
20758;SDS011;10539;53.686;9.158;2022-11-20T13:41:24;6.10;;;3.27;;
20758;SDS011;10539;53.686;9.158;2022-11-20T13:43:54;4.27;;;2.70;;
20758;SDS011;10539;53.686;9.158;2022-11-20T13:46:44;4.90;;;2.87;;
20758;SDS011;10539;53.686;9.158;2022-11-20T14:00:17;4.00;;;3.00;;
20758;SDS011;10539;53.686;9.158;2022-11-20T14:05:32;4.27;;;3.33;;
20758;SDS011;10539;53.686;9.158;2022-11-20T14:08:28;4.80;;;3.33;;
20758;SDS011;10539;53.686;9.158;2022-11-20T14:11:21;5.63;;;4.17;;
20758;SDS011;10539;53.686;9.158;2022-11-20T14:13:57;5.80;;;3.83;;
20758;SDS011;10539;53.686;9.158;2022-11-20T14:16:25;4.93;;;3.47;;
20758;SDS011;10539;53.686;9.158;2022-11-20T14:18:53;5.33;;;4.20;;
20758;SDS011;10539;53.686;9.158;2022-11-20T14:21:27;6.07;;;4.03;;
20758;SDS011;10539;53.686;9.158;2022-11-20T14:24:06;7.17;;;4.57;;
20758;SDS011;10539;53.686;9.158;2022-11-20T14:26:35;7.83;;;4.90;;
20758;SDS011;10539;53.686;9.158;2022-11-20T14:29:11;6.97;;;4.87;;
20758;SDS011;10539;53.686;9.158;2022-11-20T14:31:52;9.20;;;5.27;;
20758;SDS011;10539;53.686;9.158;2022-11-20T14:34:24;8.13;;;4.87;;
20758;SDS011;10539;53.686;9.158;2022-11-20T14:36:53;6.37;;;4.30;;
20758;SDS011;10539;53.686;9.158;2022-11-20T14:39:25;7.73;;;4.63;;
20758;SDS011;10539;53.686;9.158;2022-11-20T14:42:03;5.57;;;4.70;;
20758;SDS011;10539;53.686;9.158;2022-11-20T14:44:39;10.03;;;4.57;;
20758;SDS011;10539;53.686;9.158;2022-11-20T14:47:06;8.77;;;4.90;;
20758;SDS011;10539;53.686;9.158;2022-11-20T14:49:35;7.33;;;4.47;;
20758;SDS011;10539;53.686;9.158;2022-11-20T14:52:09;8.17;;;5.67;;
20758;SDS011;10539;53.686;9.158;2022-11-20T14:54:50;6.93;;;4.87;;
20758;SDS011;10539;53.686;9.158;2022-11-20T14:57:25;7.40;;;5.40;;
20758;SDS011;10539;53.686;9.158;2022-11-20T14:59:51;6.87;;;5.03;;
20758;SDS011;10539;53.686;9.158;2022-11-20T15:02:29;9.03;;;4.97;;
20758;SDS011;10539;53.686;9.158;2022-11-20T15:04:59;7.87;;;4.90;;
20758;SDS011;10539;53.686;9.158;2022-11-20T15:07:33;6.20;;;4.70;;
20758;SDS011;10539;53.686;9.158;2022-11-20T15:10:08;7.57;;;5.00;;
20758;SDS011;10539;53.686;9.158;2022-11-20T15:12:54;11.47;;;6.47;;
20758;SDS011;10539;53.686;9.158;2022-11-20T15:18:00;14.87;;;7.37;;
20758;SDS011;10539;53.686;9.158;2022-11-20T15:20:28;10.93;;;6.53;;
20758;SDS011;10539;53.686;9.158;2022-11-20T15:22:57;11.60;;;7.20;;
20758;SDS011;10539;53.686;9.158;2022-11-20T15:25:23;11.00;;;7.07;;
20758;SDS011;10539;53.686;9.158;2022-11-20T15:27:54;11.37;;;7.33;;
20758;SDS011;10539;53.686;9.158;2022-11-20T15:30:21;11.80;;;6.23;;
20758;SDS011;10539;53.686;9.158;2022-11-20T15:32:47;7.87;;;5.53;;
20758;SDS011;10539;53.686;9.158;2022-11-20T15:35:13;10.53;;;6.03;;
20758;SDS011;10539;53.686;9.158;2022-11-20T15:37:40;9.50;;;5.77;;
20758;SDS011;10539;53.686;9.158;2022-11-20T15:40:06;9.43;;;6.23;;
20758;SDS011;10539;53.686;9.158;2022-11-20T15:42:33;12.87;;;6.70;;
20758;SDS011;10539;53.686;9.158;2022-11-20T15:44:59;10.60;;;6.30;;
20758;SDS011;10539;53.686;9.158;2022-11-20T15:47:30;17.13;;;9.30;;
20758;SDS011;10539;53.686;9.158;2022-11-20T15:49:58;20.43;;;10.57;;
20758;SDS011;10539;53.686;9.158;2022-11-20T15:52:24;20.57;;;9.63;;
20758;SDS011;10539;53.686;9.158;2022-11-20T15:54:50;17.60;;;8.80;;
20758;SDS011;10539;53.686;9.158;2022-11-20T15:57:16;14.27;;;7.17;;
20758;SDS011;10539;53.686;9.158;2022-11-20T15:59:42;20.23;;;10.00;;
20758;SDS011;10539;53.686;9.158;2022-11-20T16:02:11;52.60;;;21.87;;
20758;SDS011;10539;53.686;9.158;2022-11-20T16:04:37;31.80;;;14.30;;
20758;SDS011;10539;53.686;9.158;2022-11-20T16:07:03;19.97;;;10.40;;
20758;SDS011;10539;53.686;9.158;2022-11-20T16:09:29;20.97;;;10.23;;
20758;SDS011;10539;53.686;9.158;2022-11-20T16:11:55;15.60;;;8.70;;
20758;SDS011;10539;53.686;9.158;2022-11-20T16:14:23;15.63;;;8.73;;
20758;SDS011;10539;53.686;9.158;2022-11-20T16:17:07;14.83;;;8.17;;
20758;SDS011;10539;53.686;9.158;2022-11-20T16:19:33;11.70;;;7.77;;
20758;SDS011;10539;53.686;9.158;2022-11-20T16:21:59;13.43;;;7.57;;
20758;SDS011;10539;53.686;9.158;2022-11-20T16:24:27;12.00;;;7.63;;
20758;SDS011;10539;53.686;9.158;2022-11-20T16:26:54;13.03;;;7.37;;
20758;SDS011;10539;53.686;9.158;2022-11-20T16:29:20;12.53;;;7.23;;
20758;SDS011;10539;53.686;9.158;2022-11-20T16:31:46;12.07;;;7.67;;
20758;SDS011;10539;53.686;9.158;2022-11-20T16:34:12;13.57;;;8.13;;
20758;SDS011;10539;53.686;9.158;2022-11-20T16:36:40;12.03;;;7.47;;
20758;SDS011;10539;53.686;9.158;2022-11-20T16:39:08;12.37;;;7.53;;
20758;SDS011;10539;53.686;9.158;2022-11-20T16:41:34;12.33;;;7.10;;
20758;SDS011;10539;53.686;9.158;2022-11-20T16:44:02;13.07;;;7.20;;